Time;durP1;ratioP1;P1;durP2;ratioP2;P2;SDS_P1;SDS_P2;PMS_P1;PMS_P2;Temp;Humidity;BMP_temperature;BMP_pressure;BME280_temperature;BME280_humidity;BME280_pressure;Samples;Min_cycle;Max_cycle;Signal;HPM_P1;HPM_P2
2023/09/21 00:01:03;;;;;;;2.08;1.70;;;14.20;99.90;;;;;;5014770;28;20022;-49
2023/09/21 00:03:28;;;;;;;3.65;1.75;;;14.20;99.90;;;;;;5012352;28;20047;-50
2023/09/21 00:05:55;;;;;;;2.38;1.98;;;14.20;99.90;;;;;;5012991;28;20482;-50
2023/09/21 00:08:22;;;;;;;3.13;1.90;;;14.20;99.90;;;;;;5017197;28;20108;-51
2023/09/21 00:10:48;;;;;;;5.10;1.58;;;14.20;99.90;;;;;;5011155;28;20032;-53
2023/09/21 00:13:14;;;;;;;2.42;1.17;;;14.10;99.90;;;;;;5012520;28;20026;-53
2023/09/21 00:15:41;;;;;;;3.35;1.75;;;14.10;99.90;;;;;;5014331;28;20029;-49
2023/09/21 00:18:06;;;;;;;2.42;1.40;;;14.00;99.90;;;;;;5016577;28;20026;-51
2023/09/21 00:23:07;;;;;;;2.63;1.70;;;14.00;99.90;;;;;;5018069;28;20150;-51
2023/09/21 00:25:34;;;;;;;3.65;1.80;;;14.00;99.90;;;;;;5015348;28;20029;-53
2023/09/21 00:28:07;;;;;;;2.80;1.73;;;14.00;99.90;;;;;;5011362;28;20422;-54
2023/09/21 00:30:33;;;;;;;3.97;2.05;;;14.00;99.90;;;;;;5018103;28;20032;-52
2023/09/21 00:32:58;;;;;;;3.10;2.10;;;14.00;99.90;;;;;;5011696;28;20050;-47
2023/09/21 00:35:27;;;;;;;2.28;2.08;;;14.00;99.90;;;;;;5017934;28;21008;-48
2023/09/21 00:37:52;;;;;;;2.50;2.03;;;14.00;99.90;;;;;;5014562;28;20026;-51
2023/09/21 00:40:18;;;;;;;4.05;2.00;;;14.10;99.90;;;;;;5016735;28;20086;-52
2023/09/21 00:42:44;;;;;;;4.00;2.00;;;14.10;99.90;;;;;;5016527;28;20021;-49
2023/09/21 00:45:10;;;;;;;2.15;1.90;;;14.10;99.90;;;;;;5014367;28;20022;-51
2023/09/21 00:47:41;;;;;;;2.50;1.98;;;14.10;99.90;;;;;;5019383;28;20041;-54
2023/09/21 00:50:10;;;;;;;2.20;1.85;;;14.10;99.90;;;;;;5015510;28;20025;-50
2023/09/21 00:52:43;;;;;;;2.92;1.80;;;14.10;99.90;;;;;;5020623;28;20030;-52
2023/09/21 00:55:24;;;;;;;4.38;2.10;;;14.10;99.90;;;;;;5020606;28;20026;-49
2023/09/21 00:57:55;;;;;;;5.47;2.15;;;14.10;99.90;;;;;;5016119;28;20029;-52
2023/09/21 01:00:25;;;;;;;4.50;2.15;;;14.00;99.90;;;;;;5013973;28;20025;-49
2023/09/21 01:02:53;;;;;;;3.55;2.08;;;14.00;99.90;;;;;;5016610;28;20056;-53
2023/09/21 01:05:21;;;;;;;5.40;2.28;;;13.90;99.90;;;;;;5015718;28;20060;-54
2023/09/21 01:07:48;;;;;;;5.10;2.03;;;13.90;99.90;;;;;;5013845;28;20099;-53
2023/09/21 01:10:15;;;;;;;2.42;2.13;;;13.90;99.90;;;;;;5019939;28;20432;-50
2023/09/21 01:12:49;;;;;;;3.72;2.10;;;13.90;99.90;;;;;;5019767;28;20061;-51
2023/09/21 01:15:15;;;;;;;2.95;2.17;;;13.90;99.90;;;;;;5016073;28;20041;-53
2023/09/21 01:17:45;;;;;;;1.90;1.67;;;13.90;99.90;;;;;;5019760;28;20097;-51
2023/09/21 01:20:22;;;;;;;2.92;2.33;;;13.90;99.90;;;;;;5012014;28;20044;-54
2023/09/21 01:23:01;;;;;;;2.42;2.00;;;13.80;99.90;;;;;;5014672;28;20026;-54
2023/09/21 01:25:27;;;;;;;1.92;1.70;;;13.80;99.90;;;;;;5013122;28;20091;-51
2023/09/21 01:27:53;;;;;;;2.47;1.70;;;13.70;99.90;;;;;;5013354;28;20018;-54
2023/09/21 01:30:18;;;;;;;1.98;1.70;;;13.70;99.90;;;;;;5016496;28;20022;-54
2023/09/21 01:32:45;;;;;;;3.03;1.80;;;13.60;99.90;;;;;;5014762;28;20044;-52
2023/09/21 01:35:14;;;;;;;4.38;2.13;;;13.60;99.90;;;;;;5019452;28;20604;-53
2023/09/21 01:37:40;;;;;;;3.75;2.15;;;13.50;99.90;;;;;;5014069;28;20521;-53
2023/09/21 01:40:15;;;;;;;2.33;1.70;;;13.60;99.90;;;;;;5014721;28;20032;-54
2023/09/21 01:42:41;;;;;;;4.65;1.85;;;13.60;99.90;;;;;;5019428;28;20022;-54
2023/09/21 01:45:13;;;;;;;4.05;2.15;;;13.60;99.90;;;;;;5013286;28;20041;-49
2023/09/21 01:47:39;;;;;;;5.30;2.53;;;13.70;99.90;;;;;;5004813;28;20037;-54
2023/09/21 01:50:06;;;;;;;4.60;2.05;;;13.80;99.90;;;;;;5015806;28;20539;-54
2023/09/21 01:52:32;;;;;;;4.93;2.35;;;13.80;99.90;;;;;;5016620;28;20037;-51
2023/09/21 01:54:59;;;;;;;3.72;2.55;;;13.80;99.90;;;;;;5020713;28;20029;-53
2023/09/21 01:57:25;;;;;;;5.10;2.35;;;13.80;99.90;;;;;;5020672;28;20021;-53
2023/09/21 01:59:50;;;;;;;6.50;2.50;;;13.80;99.90;;;;;;5020513;28;20026;-50
2023/09/21 02:02:20;;;;;;;4.53;2.70;;;13.80;99.90;;;;;;5018568;28;20037;-52
2023/09/21 02:04:47;;;;;;;3.30;2.53;;;13.80;99.90;;;;;;5011229;28;20065;-53
2023/09/21 02:07:14;;;;;;;3.47;1.88;;;13.90;99.90;;;;;;5019052;28;20024;-52
2023/09/21 02:09:40;;;;;;;2.53;2.20;;;13.90;99.90;;;;;;5018961;28;20458;-55
2023/09/21 02:12:06;;;;;;;2.28;2.08;;;13.90;99.90;;;;;;5018744;28;20018;-51
2023/09/21 02:14:32;;;;;;;2.25;2.00;;;13.90;99.90;;;;;;5014215;28;20065;-53
2023/09/21 02:16:58;;;;;;;3.47;2.30;;;13.90;99.90;;;;;;5012726;28;20028;-53
2023/09/21 02:19:23;;;;;;;5.68;2.38;;;13.90;99.90;;;;;;5018489;28;20089;-52
2023/09/21 02:21:50;;;;;;;4.07;2.60;;;13.90;99.90;;;;;;5013546;28;20021;-52
2023/09/21 02:24:15;;;;;;;2.85;2.30;;;13.90;99.90;;;;;;5016685;28;20390;-54
2023/09/21 02:26:42;;;;;;;4.22;2.30;;;13.90;99.90;;;;;;5015328;28;20029;-53
2023/09/21 02:29:09;;;;;;;2.50;2.10;;;13.90;99.90;;;;;;5013127;28;20037;-51
2023/09/21 02:31:37;;;;;;;6.43;2.50;;;13.90;99.90;;;;;;5016121;28;20477;-52
2023/09/21 02:34:02;;;;;;;2.47;2.03;;;13.80;99.90;;;;;;5018726;28;20049;-50
2023/09/21 02:36:28;;;;;;;5.57;2.55;;;13.80;99.90;;;;;;5018396;28;20057;-54
2023/09/21 02:38:53;;;;;;;3.63;2.42;;;13.70;99.90;;;;;;5012738;28;20053;-51
2023/09/21 02:41:19;;;;;;;2.90;1.98;;;13.70;99.90;;;;;;5019431;28;20079;-49
2023/09/21 02:43:45;;;;;;;4.80;2.22;;;13.60;99.90;;;;;;5014803;28;20021;-53
2023/09/21 02:46:13;;;;;;;2.25;2.05;;;13.50;99.90;;;;;;5013597;28;20075;-52
2023/09/21 02:48:38;;;;;;;4.18;2.13;;;13.50;99.90;;;;;;5007264;28;20022;-53
2023/09/21 02:51:04;;;;;;;3.45;1.98;;;13.40;99.90;;;;;;5020691;28;20067;-53
2023/09/21 02:53:30;;;;;;;1.85;1.75;;;13.40;99.90;;;;;;5013753;28;20035;-50
2023/09/21 02:55:55;;;;;;;2.80;2.22;;;13.30;99.90;;;;;;5013303;28;20025;-47
2023/09/21 02:58:21;;;;;;;3.78;2.15;;;13.20;99.90;;;;;;5014740;28;20067;-54
2023/09/21 03:00:49;;;;;;;3.10;1.98;;;13.10;99.90;;;;;;5011187;28;20030;-53
2023/09/21 03:03:16;;;;;;;3.13;1.85;;;13.10;99.90;;;;;;5015850;28;20480;-54
2023/09/21 03:05:49;;;;;;;3.42;2.40;;;13.00;99.90;;;;;;5011742;28;20025;-54
2023/09/21 03:08:15;;;;;;;6.25;2.38;;;13.00;99.90;;;;;;5015672;28;20040;-52
2023/09/21 03:10:49;;;;;;;4.72;2.28;;;12.90;99.90;;;;;;5016001;28;20059;-53
2023/09/21 03:13:19;;;;;;;3.47;1.92;;;12.90;99.90;;;;;;5010381;28;20034;-49
2023/09/21 03:15:47;;;;;;;3.03;2.30;;;12.90;99.90;;;;;;5014956;28;20519;-50
2023/09/21 03:18:13;;;;;;;3.53;2.03;;;12.80;99.90;;;;;;5010056;28;20026;-50
2023/09/21 03:20:40;;;;;;;3.22;2.47;;;12.80;99.90;;;;;;5015732;28;20401;-53
2023/09/21 03:23:09;;;;;;;3.28;1.88;;;12.80;99.90;;;;;;5015738;28;20021;-55
2023/09/21 03:25:45;;;;;;;6.25;2.08;;;12.70;99.90;;;;;;5014367;28;20576;-52
2023/09/21 03:28:13;;;;;;;;;;;12.70;99.90;;;;;;5012506;28;20025;-51
2023/09/21 03:30:40;;;;;;;5.32;2.22;;;12.70;99.90;;;;;;5012409;28;19980;-52
2023/09/21 03:33:06;;;;;;;2.97;2.10;;;12.60;99.90;;;;;;5014754;28;20053;-49
2023/09/21 03:35:32;;;;;;;2.28;1.83;;;12.60;99.90;;;;;;5012178;28;20054;-51
2023/09/21 03:37:57;;;;;;;3.25;2.35;;;12.60;99.90;;;;;;5009924;28;20022;-52
2023/09/21 03:40:26;;;;;;;4.90;2.80;;;12.60;99.90;;;;;;5014888;28;20021;-48
2023/09/21 03:42:54;;;;;;;3.92;2.28;;;12.60;99.90;;;;;;5017376;28;20516;-54
2023/09/21 03:45:22;;;;;;;3.00;2.67;;;12.60;99.90;;;;;;5014840;28;20393;-53
2023/09/21 03:47:48;;;;;;;4.03;2.70;;;12.70;99.90;;;;;;5012797;28;20444;-52
2023/09/21 03:50:14;;;;;;;4.15;2.80;;;12.70;99.90;;;;;;5015672;28;20022;-54
2023/09/21 03:52:42;;;;;;;3.67;2.90;;;12.80;99.90;;;;;;5008428;28;20033;-54
2023/09/21 03:55:10;;;;;;;3.78;2.70;;;12.80;99.90;;;;;;5021014;28;20029;-52
2023/09/21 03:57:36;;;;;;;4.53;2.90;;;12.90;99.90;;;;;;5012599;28;20029;-51
2023/09/21 04:00:06;;;;;;;5.43;3.08;;;12.90;99.90;;;;;;5015654;28;20033;-58
2023/09/21 04:02:33;;;;;;;3.40;2.67;;;12.90;99.90;;;;;;5023301;28;20684;-63
2023/09/21 04:05:09;;;;;;;3.03;2.38;;;12.90;99.90;;;;;;5023329;28;20030;-63
2023/09/21 04:07:34;;;;;;;4.50;2.83;;;12.90;99.90;;;;;;5022908;28;20061;-64
2023/09/21 04:10:01;;;;;;;3.75;2.70;;;12.90;99.90;;;;;;5025237;28;20540;-63
2023/09/21 04:12:26;;;;;;;3.65;2.60;;;12.90;99.90;;;;;;5023148;28;20021;-63
2023/09/21 04:14:52;;;;;;;3.55;2.38;;;12.90;99.90;;;;;;5028992;28;20430;-64
2023/09/21 04:17:17;;;;;;;6.10;2.70;;;13.00;99.90;;;;;;5023139;28;20052;-64
2023/09/21 04:19:44;;;;;;;4.25;2.97;;;13.00;99.90;;;;;;5020121;28;20033;-63
2023/09/21 04:22:09;;;;;;;4.75;2.90;;;13.00;99.90;;;;;;5025874;28;20020;-62
2023/09/21 04:24:34;;;;;;;6.03;2.80;;;13.00;99.90;;;;;;5023290;28;20029;-63
2023/09/21 04:27:00;;;;;;;3.33;2.80;;;13.00;99.90;;;;;;5022673;28;20101;-62
2023/09/21 04:29:26;;;;;;;3.55;2.78;;;13.00;99.90;;;;;;5024302;28;20505;-63
2023/09/21 04:31:51;;;;;;;4.45;3.20;;;13.00;99.90;;;;;;5019441;28;20106;-63
2023/09/21 04:34:17;;;;;;;3.78;2.78;;;12.90;99.90;;;;;;5022293;28;20486;-63
2023/09/21 04:36:43;;;;;;;2.80;2.60;;;12.90;99.90;;;;;;5020845;28;20034;-64
2023/09/21 04:39:13;;;;;;;4.78;2.28;;;12.80;99.90;;;;;;5025761;28;20026;-58
2023/09/21 04:41:39;;;;;;;5.07;2.72;;;12.80;99.90;;;;;;5020048;28;20101;-63
2023/09/21 04:44:05;;;;;;;3.53;2.38;;;12.80;99.90;;;;;;5021390;28;20430;-61
2023/09/21 04:46:31;;;;;;;4.65;2.70;;;12.80;99.90;;;;;;5019970;28;20021;-64
2023/09/21 04:48:57;;;;;;;4.55;2.53;;;12.70;99.90;;;;;;5012270;28;20029;-64
2023/09/21 04:51:22;;;;;;;5.88;3.25;;;12.60;99.90;;;;;;5017992;28;20044;-65
2023/09/21 04:53:48;;;;;;;3.83;2.60;;;12.60;99.90;;;;;;5025163;28;20074;-63
2023/09/21 04:56:14;;;;;;;6.60;2.80;;;12.60;99.90;;;;;;5019419;28;20111;-63
2023/09/21 04:58:40;;;;;;;6.13;3.10;;;12.60;99.90;;;;;;5018127;28;20029;-63
2023/09/21 05:01:10;;;;;;;3.53;2.92;;;12.60;99.90;;;;;;5022349;28;20029;-63
2023/09/21 05:03:37;;;;;;;3.60;2.58;;;12.60;99.90;;;;;;5019729;28;20032;-64
2023/09/21 05:06:06;;;;;;;3.40;2.83;;;12.60;99.90;;;;;;5022962;28;20022;-63
2023/09/21 05:08:36;;;;;;;5.13;2.60;;;12.60;99.90;;;;;;5023650;28;20041;-63
2023/09/21 05:11:05;;;;;;;3.08;2.35;;;12.60;99.90;;;;;;5024760;28;20018;-64
2023/09/21 05:13:31;;;;;;;3.60;2.25;;;12.60;99.90;;;;;;5019495;28;20053;-64
2023/09/21 05:15:56;;;;;;;3.78;2.72;;;12.60;99.90;;;;;;5023200;28;20052;-65
2023/09/21 05:18:22;;;;;;;3.17;2.53;;;12.60;99.90;;;;;;5023023;28;20032;-64
2023/09/21 05:20:49;;;;;;;4.28;2.88;;;12.60;99.90;;;;;;5019963;28;20398;-64
2023/09/21 05:23:14;;;;;;;5.47;3.35;;;12.60;99.90;;;;;;5022024;28;20056;-64
2023/09/21 05:25:40;;;;;;;5.00;3.30;;;12.70;99.90;;;;;;5019186;28;20430;-64
2023/09/21 05:28:05;;;;;;;3.83;2.85;;;12.70;99.90;;;;;;5021158;28;20037;-64
2023/09/21 05:30:31;;;;;;;4.30;2.70;;;12.70;99.90;;;;;;5021205;28;20079;-64
2023/09/21 05:32:57;;;;;;;3.42;2.50;;;12.80;99.90;;;;;;5021003;28;20524;-64
2023/09/21 05:35:23;;;;;;;3.38;2.63;;;12.70;99.90;;;;;;5021094;28;20022;-64
2023/09/21 05:37:49;;;;;;;6.55;2.58;;;12.80;99.90;;;;;;5017126;28;20037;-64
2023/09/21 05:40:14;;;;;;;3.67;2.45;;;13.00;99.90;;;;;;5025265;28;20029;-64
2023/09/21 05:42:41;;;;;;;2.25;2.03;;;13.60;99.90;;;;;;5023179;28;20033;-64
2023/09/21 05:45:07;;;;;;;4.10;2.35;;;14.30;99.90;;;;;;5020911;28;20508;-64
2023/09/21 05:47:33;;;;;;;2.88;2.60;;;15.10;99.90;;;;;;5019524;28;20142;-63
2023/09/21 05:49:59;;;;;;;3.55;2.60;;;15.90;99.90;;;;;;5020990;28;20512;-64
2023/09/21 05:52:25;;;;;;;3.65;2.65;;;16.50;99.90;;;;;;5020896;28;20501;-63
2023/09/21 05:54:51;;;;;;;2.55;2.30;;;17.00;99.90;;;;;;5020775;28;20017;-63
2023/09/21 05:57:17;;;;;;;3.05;2.40;;;17.70;99.90;;;;;;5022588;28;20481;-63
2023/09/21 05:59:43;;;;;;;2.70;2.10;;;18.30;99.90;;;;;;5024619;28;20038;-63
2023/09/21 06:02:13;;;;;;;2.92;2.40;;;18.80;98.70;;;;;;5022931;28;20032;-64
2023/09/21 06:04:39;;;;;;;3.35;2.35;;;19.10;95.10;;;;;;5022266;28;20029;-63
2023/09/21 06:07:05;;;;;;;2.70;1.95;;;19.70;96.60;;;;;;5015358;28;20025;-63
2023/09/21 06:09:33;;;;;;;2.88;1.92;;;20.30;95.20;;;;;;5014163;28;20036;-63
2023/09/21 06:11:59;;;;;;;2.13;1.92;;;20.70;93.80;;;;;;5019622;28;20022;-63
2023/09/21 06:14:25;;;;;;;2.58;2.03;;;21.30;91.70;;;;;;5017631;28;20504;-63
2023/09/21 06:16:51;;;;;;;2.05;1.85;;;21.60;92.00;;;;;;5014411;28;20059;-63
2023/09/21 06:19:18;;;;;;;4.47;2.45;;;21.70;90.70;;;;;;5013184;28;20036;-63
2023/09/21 06:21:47;;;;;;;4.35;2.30;;;21.20;91.00;;;;;;5013252;28;20104;-64
2023/09/21 06:24:12;;;;;;;3.63;2.25;;;20.60;91.10;;;;;;5012931;28;20141;-63
2023/09/21 06:26:38;;;;;;;4.68;2.30;;;20.00;90.80;;;;;;5013778;28;20484;-62
2023/09/21 06:29:04;;;;;;;3.00;2.63;;;19.40;89.60;;;;;;5015644;28;20048;-62
2023/09/21 06:31:30;;;;;;;2.97;2.35;;;18.70;91.50;;;;;;5014055;28;20036;-63
2023/09/21 06:34:07;;;;;;;2.50;2.30;;;18.20;92.20;;;;;;5076818;28;20389;-63
2023/09/21 06:36:33;;;;;;;2.60;2.22;;;17.90;92.20;;;;;;5064219;28;20051;-63
2023/09/21 06:38:59;;;;;;;4.32;2.55;;;17.70;93.20;;;;;;5069987;28;20115;-63
2023/09/21 06:41:26;;;;;;;4.22;2.65;;;17.50;93.50;;;;;;5066926;28;23666;-63
2023/09/21 06:43:51;;;;;;;3.35;2.30;;;17.30;94.40;;;;;;5065007;28;20033;-63
2023/09/21 06:46:18;;;;;;;3.10;2.38;;;17.30;94.80;;;;;;5066893;28;20160;-45
2023/09/21 06:48:44;;;;;;;3.67;2.67;;;17.60;94.50;;;;;;5064435;28;20031;-64
2023/09/21 06:51:09;;;;;;;2.75;2.15;;;18.30;92.80;;;;;;5066961;28;20099;-63
2023/09/21 06:53:38;;;;;;;3.50;2.25;;;19.30;92.00;;;;;;5060602;28;20097;-63
2023/09/21 06:56:04;;;;;;;2.72;2.25;;;20.10;86.50;;;;;;5062976;28;20025;-64
2023/09/21 06:58:30;;;;;;;2.47;1.98;;;21.00;81.60;;;;;;5057185;28;20038;-64
2023/09/21 07:00:59;;;;;;;2.50;2.13;;;21.80;85.50;;;;;;5063429;28;20033;-63
2023/09/21 07:03:25;;;;;;;3.97;2.05;;;22.30;79.80;;;;;;5061815;28;20044;-62
2023/09/21 07:05:50;;;;;;;3.22;2.33;;;22.60;78.80;;;;;;5068709;28;20089;-62
2023/09/21 07:08:19;;;;;;;6.10;2.00;;;22.70;75.00;;;;;;5060679;28;20032;-62
2023/09/21 07:10:45;;;;;;;3.67;2.10;;;22.90;77.70;;;;;;5062780;28;20089;-61
2023/09/21 07:13:11;;;;;;;5.05;2.40;;;23.00;74.40;;;;;;5064345;28;20032;-62
2023/09/21 07:15:40;;;;;;;2.65;2.13;;;23.20;71.80;;;;;;5065377;28;20020;-62
2023/09/21 07:18:06;;;;;;;2.15;1.70;;;23.70;72.50;;;;;;5062137;28;20036;-61
2023/09/21 07:20:32;;;;;;;3.38;2.30;;;24.20;72.40;;;;;;5068327;28;20024;-62
2023/09/21 07:22:58;;;;;;;2.00;1.80;;;24.60;70.50;;;;;;5058531;28;20024;-62
2023/09/21 07:25:28;;;;;;;5.93;2.30;;;24.70;70.50;;;;;;5066356;28;20047;-62
2023/09/21 07:27:54;;;;;;;2.05;1.77;;;24.90;65.00;;;;;;5066076;28;20545;-61
2023/09/21 07:30:31;;;;;;;3.95;2.00;;;25.10;68.00;;;;;;5065974;28;20032;-61
2023/09/21 07:32:57;;;;;;;3.25;2.22;;;25.50;60.40;;;;;;5063302;28;20033;-61
2023/09/21 07:35:22;;;;;;;2.38;1.85;;;25.70;64.40;;;;;;5063812;28;20391;-61
2023/09/21 07:37:51;;;;;;;2.63;2.00;;;25.90;64.80;;;;;;5065826;28;20107;-61
2023/09/21 07:40:17;;;;;;;3.47;2.17;;;26.10;58.90;;;;;;5060959;28;20040;-62
2023/09/21 07:42:43;;;;;;;3.60;2.10;;;26.00;61.00;;;;;;5055627;28;20028;-62
2023/09/21 07:45:10;;;;;;;2.97;1.80;;;26.30;63.00;;;;;;5050541;28;20028;-58
2023/09/21 07:47:37;;;;;;;2.72;1.85;;;26.60;60.70;;;;;;5047281;28;20543;-62
2023/09/21 07:50:04;;;;;;;5.32;1.95;;;26.50;58.70;;;;;;5047864;28;20028;-62
2023/09/21 07:52:30;;;;;;;2.55;1.95;;;26.30;56.10;;;;;;5053496;28;20033;-62
2023/09/21 07:54:56;;;;;;;1.73;1.63;;;26.50;57.10;;;;;;5050104;28;20025;-61
2023/09/21 07:57:22;;;;;;;3.30;1.75;;;26.20;53.30;;;;;;5052468;28;20017;-61
2023/09/21 07:59:47;;;;;;;2.40;1.90;;;25.70;58.50;;;;;;5051535;28;20032;-62
2023/09/21 08:02:13;;;;;;;3.38;2.30;;;25.30;55.40;;;;;;5046240;28;20625;-62
2023/09/21 08:04:38;;;;;;;2.72;2.00;;;25.20;59.60;;;;;;5050081;28;20029;-62
2023/09/21 08:07:07;;;;;;;2.92;1.80;;;25.40;56.70;;;;;;5049998;28;20036;-62
2023/09/21 08:09:33;;;;;;;4.45;2.10;;;25.10;60.50;;;;;;5047502;28;20032;-62
2023/09/21 08:11:59;;;;;;;5.45;2.00;;;25.50;58.90;;;;;;5047787;28;20037;-62
2023/09/21 08:14:25;;;;;;;2.20;1.73;;;26.00;57.50;;;;;;5052008;28;20043;-62
2023/09/21 08:16:53;;;;;;;3.80;1.88;;;26.40;57.30;;;;;;5045828;28;20464;-61
2023/09/21 08:19:19;;;;;;;1.60;1.50;;;26.60;52.10;;;;;;5050925;28;20021;-62
2023/09/21 08:21:45;;;;;;;2.20;1.65;;;26.10;57.00;;;;;;5045877;28;20495;-62
2023/09/21 08:24:10;;;;;;;2.83;1.88;;;26.10;55.70;;;;;;5049685;28;20028;-62
2023/09/21 08:26:37;;;;;;;2.67;2.00;;;26.10;55.30;;;;;;5049462;28;20082;-62
2023/09/21 08:29:03;;;;;;;3.42;1.90;;;25.90;56.50;;;;;;5050701;28;20523;-62
2023/09/21 08:31:28;;;;;;;3.85;1.80;;;25.80;57.20;;;;;;5050463;28;20033;-62
2023/09/21 08:33:54;;;;;;;4.95;1.70;;;25.60;54.30;;;;;;5050666;28;20462;-62
2023/09/21 08:36:20;;;;;;;2.63;1.80;;;25.40;54.70;;;;;;5048578;28;20075;-62
2023/09/21 08:38:45;;;;;;;2.20;1.70;;;25.30;57.30;;;;;;5046108;28;20029;-62
2023/09/21 08:41:11;;;;;;;2.28;1.70;;;25.80;57.50;;;;;;5049976;28;20016;-62
2023/09/21 08:43:37;;;;;;;2.53;1.67;;;26.10;56.40;;;;;;5043180;28;20107;-62
2023/09/21 08:46:03;;;;;;;2.88;1.67;;;26.60;56.90;;;;;;5047067;28;20021;-62
2023/09/21 08:48:31;;;;;;;2.20;1.70;;;26.70;55.50;;;;;;5044360;28;20078;-62
2023/09/21 08:51:00;;;;;;;2.17;1.50;;;26.80;55.10;;;;;;5053086;28;20437;-63
2023/09/21 08:53:26;;;;;;;3.88;1.73;;;26.70;54.80;;;;;;5046030;28;20039;-62
2023/09/21 08:55:55;;;;;;;2.00;1.63;;;26.70;53.00;;;;;;5048697;28;20389;-63
2023/09/21 08:58:25;;;;;;;1.33;1.15;;;26.50;54.10;;;;;;5047623;28;20043;-62
2023/09/21 09:00:56;;;;;;;6.15;2.05;;;27.00;54.30;;;;;;5045632;28;20071;-63
2023/09/21 09:03:25;;;;;;;4.18;1.70;;;27.20;52.10;;;;;;5049048;28;20024;-62
2023/09/21 09:05:52;;;;;;;2.08;1.52;;;27.40;52.80;;;;;;5049359;28;20025;-63
2023/09/21 09:08:18;;;;;;;3.42;1.80;;;27.40;50.70;;;;;;5049320;28;20526;-62
2023/09/21 09:10:43;;;;;;;3.55;1.50;;;27.20;51.70;;;;;;5044243;28;20116;-62
2023/09/21 09:13:09;;;;;;;3.30;1.60;;;26.90;51.00;;;;;;5051517;28;20064;-62
2023/09/21 09:15:37;;;;;;;2.70;1.80;;;26.80;52.00;;;;;;5046398;28;20436;-62
2023/09/21 09:18:03;;;;;;;3.72;1.77;;;27.10;51.00;;;;;;5054416;28;20031;-62
2023/09/21 09:20:29;;;;;;;3.30;1.40;;;27.20;50.60;;;;;;5047956;28;20393;-62
2023/09/21 09:22:55;;;;;;;4.05;1.95;;;27.40;50.00;;;;;;5045085;28;20134;-62
2023/09/21 09:25:21;;;;;;;2.50;1.80;;;27.60;49.70;;;;;;5050702;28;20025;-63
2023/09/21 09:27:47;;;;;;;3.45;2.00;;;27.20;49.70;;;;;;5044753;28;20025;-62
2023/09/21 09:30:12;;;;;;;3.35;1.55;;;27.20;50.90;;;;;;5052611;28;20028;-62
2023/09/21 09:32:41;;;;;;;2.67;1.77;;;27.40;49.90;;;;;;5039990;28;20512;-62
2023/09/21 09:35:13;;;;;;;4.60;1.75;;;27.50;49.80;;;;;;5047437;28;20044;-63
2023/09/21 09:37:47;;;;;;;2.67;2.10;;;27.20;48.40;;;;;;5048194;28;20043;-62
2023/09/21 09:40:13;;;;;;;2.33;1.45;;;27.30;48.80;;;;;;5050085;28;20021;-62
2023/09/21 09:42:45;;;;;;;2.58;1.45;;;27.20;49.00;;;;;;5048001;28;20028;-62
2023/09/21 09:45:16;;;;;;;2.28;1.50;;;27.20;48.90;;;;;;5048311;28;20028;-59
2023/09/21 09:47:45;;;;;;;2.88;1.85;;;27.50;48.80;;;;;;5038924;28;20039;-61
2023/09/21 09:50:13;;;;;;;3.22;1.50;;;27.70;48.30;;;;;;5037683;28;20025;-58
2023/09/21 09:52:43;;;;;;;1.75;1.55;;;27.80;48.00;;;;;;5049203;28;20048;-63
2023/09/21 09:55:12;;;;;;;4.43;1.65;;;27.60;47.10;;;;;;5045794;28;20473;-63
2023/09/21 09:57:41;;;;;;;1.60;1.30;;;27.60;48.00;;;;;;5048465;28;20054;-62
2023/09/21 10:00:15;;;;;;;3.58;1.67;;;27.80;47.60;;;;;;5044092;28;20081;-62
2023/09/21 10:02:43;;;;;;;8.60;1.85;;;27.90;45.50;;;;;;5044693;28;20567;-62
2023/09/21 10:05:10;;;;;;;3.13;1.30;;;27.90;44.80;;;;;;5044338;28;20035;-53
2023/09/21 10:07:37;;;;;;;1.38;1.10;;;27.90;44.50;;;;;;5046965;28;20074;-58
2023/09/21 10:10:07;;;;;;;2.25;1.70;;;28.00;44.20;;;;;;5047080;28;20028;-58
2023/09/21 10:12:34;;;;;;;2.13;1.60;;;28.00;43.90;;;;;;5048639;28;20025;-57
2023/09/21 10:15:02;;;;;;;4.90;1.58;;;28.10;43.20;;;;;;5047594;28;20021;-58
2023/09/21 10:17:27;;;;;;;2.33;1.42;;;27.90;42.20;;;;;;5045376;28;20112;-57
2023/09/21 10:20:10;;;;;;;1.58;1.08;;;27.70;41.50;;;;;;5045895;28;20108;-58
2023/09/21 10:22:36;;;;;;;1.63;1.40;;;27.60;41.30;;;;;;5047224;28;20025;-58
2023/09/21 10:25:03;;;;;;;3.63;1.50;;;27.40;41.50;;;;;;5047540;28;20036;-57
2023/09/21 10:27:33;;;;;;;4.35;1.50;;;27.20;41.50;;;;;;5044532;28;20037;-56
2023/09/21 10:30:09;;;;;;;2.55;1.30;;;27.10;41.60;;;;;;5046746;28;20029;-58
2023/09/21 10:32:47;;;;;;;1.25;1.15;;;26.90;41.20;;;;;;5045649;28;20756;-58
2023/09/21 10:35:21;;;;;;;3.55;1.45;;;26.80;42.10;;;;;;5047525;28;20021;-56
2023/09/21 10:37:51;;;;;;;2.63;1.30;;;26.60;41.90;;;;;;5049025;28;20050;-58
2023/09/21 10:40:25;;;;;;;2.17;1.65;;;26.50;42.00;;;;;;5044012;28;20024;-57
2023/09/21 10:42:51;;;;;;;3.88;1.58;;;26.40;41.40;;;;;;5044627;28;20492;-58
2023/09/21 10:45:16;;;;;;;1.80;1.38;;;26.30;42.40;;;;;;5047192;28;20014;-57
2023/09/21 10:47:51;;;;;;;2.55;1.75;;;26.20;42.30;;;;;;5040033;28;20511;-58
2023/09/21 10:50:21;;;;;;;4.38;2.17;;;26.30;42.40;;;;;;5039357;28;20536;-56
2023/09/21 10:52:48;;;;;;;4.72;1.50;;;26.30;41.50;;;;;;5047538;28;20042;-57
2023/09/21 10:55:16;;;;;;;2.78;1.38;;;26.30;41.20;;;;;;5047754;28;20565;-57
2023/09/21 10:57:42;;;;;;;1.60;1.50;;;26.30;41.10;;;;;;5044229;28;20028;-56
2023/09/21 11:00:18;;;;;;;1.63;1.20;;;26.20;41.10;;;;;;5048996;28;20496;-57
2023/09/21 11:02:44;;;;;;;1.25;1.13;;;26.30;41.40;;;;;;5044912;28;20029;-57
2023/09/21 11:05:11;;;;;;;3.50;1.40;;;26.30;41.50;;;;;;5045209;28;20043;-57
2023/09/21 11:07:37;;;;;;;2.65;1.55;;;26.30;41.20;;;;;;5047697;28;20032;-57
2023/09/21 11:10:05;;;;;;;1.30;1.20;;;26.30;40.80;;;;;;5042243;28;20078;-59
2023/09/21 11:12:31;;;;;;;2.92;1.40;;;26.30;40.60;;;;;;5050442;28;20039;-57
2023/09/21 11:14:56;;;;;;;2.35;1.50;;;26.20;39.70;;;;;;5048170;28;20030;-57
2023/09/21 11:17:22;;;;;;;1.52;1.10;;;26.20;39.70;;;;;;5046263;28;20025;-57
2023/09/21 11:19:49;;;;;;;3.60;1.10;;;26.20;39.80;;;;;;5047005;28;20024;-57
2023/09/21 11:22:15;;;;;;;2.92;1.58;;;26.20;39.60;;;;;;5052262;28;20123;-56
2023/09/21 11:24:42;;;;;;;1.65;1.20;;;26.30;38.00;;;;;;5052958;28;20417;-57
2023/09/21 11:27:10;;;;;;;3.25;1.40;;;26.40;38.20;;;;;;5050694;28;20039;-57
2023/09/21 11:29:39;;;;;;;1.90;1.40;;;26.30;38.20;;;;;;5042335;28;20025;-57
2023/09/21 11:32:07;;;;;;;1.95;1.60;;;26.40;38.40;;;;;;5054336;28;20049;-56
2023/09/21 11:34:36;;;;;;;1.60;1.30;;;26.40;36.20;;;;;;5048543;28;20028;-58
2023/09/21 11:37:03;;;;;;;5.50;1.70;;;26.40;36.50;;;;;;5051442;28;20052;-57
2023/09/21 11:39:29;;;;;;;2.15;1.50;;;26.50;34.50;;;;;;5047521;28;20020;-58
2023/09/21 11:41:55;;;;;;;1.50;1.38;;;26.60;35.10;;;;;;5050595;28;20029;-57
2023/09/21 11:44:26;;;;;;;3.38;1.42;;;26.50;34.80;;;;;;5051963;28;20032;-56
2023/09/21 11:46:53;;;;;;;1.75;1.63;;;26.60;33.70;;;;;;5039552;28;20505;-58
2023/09/21 11:49:19;;;;;;;2.47;1.88;;;26.60;33.30;;;;;;5048038;28;20036;-57
2023/09/21 11:51:44;;;;;;;2.38;1.70;;;26.60;32.70;;;;;;5050599;28;20040;-58
2023/09/21 11:54:11;;;;;;;1.73;1.40;;;26.60;32.10;;;;;;5052260;28;20089;-57
2023/09/21 11:56:37;;;;;;;2.42;1.70;;;26.60;32.10;;;;;;5051183;28;20032;-57
2023/09/21 11:59:06;;;;;;;2.03;1.58;;;26.60;32.20;;;;;;5050436;28;20033;-59
2023/09/21 12:01:34;;;;;;;1.92;1.50;;;26.70;32.20;;;;;;5047038;28;20032;-56
2023/09/21 12:04:00;;;;;;;2.33;1.40;;;26.60;32.20;;;;;;5047625;28;20110;-56
2023/09/21 12:06:27;;;;;;;2.03;1.50;;;26.70;32.10;;;;;;5049984;28;20103;-57
2023/09/21 12:08:53;;;;;;;2.20;1.60;;;26.70;31.20;;;;;;5051509;28;20021;-57
2023/09/21 12:11:21;;;;;;;3.78;1.73;;;26.70;31.00;;;;;;5052209;28;20025;-57
2023/09/21 12:13:46;;;;;;;1.48;1.38;;;26.80;31.00;;;;;;5051948;28;20048;-58
2023/09/21 12:16:12;;;;;;;2.25;1.60;;;26.80;31.00;;;;;;5048870;28;20024;-57
2023/09/21 12:18:37;;;;;;;1.45;1.33;;;26.80;30.00;;;;;;5046696;28;20033;-57
2023/09/21 12:21:03;;;;;;;2.28;1.48;;;26.80;30.00;;;;;;5054986;28;20396;-57
2023/09/21 12:23:29;;;;;;;3.95;1.80;;;26.90;29.60;;;;;;5048109;28;20028;-58
2023/09/21 12:25:55;;;;;;;1.80;1.70;;;26.90;28.60;;;;;;5051975;28;20482;-57
2023/09/21 12:28:21;;;;;;;7.13;1.95;;;26.90;28.60;;;;;;5048258;28;20021;-57
2023/09/21 12:30:48;;;;;;;2.72;1.80;;;26.90;28.70;;;;;;5050511;28;20031;-57
2023/09/21 12:33:17;;;;;;;2.90;1.75;;;26.90;28.50;;;;;;5046428;28;20037;-57
2023/09/21 12:35:43;;;;;;;2.28;1.60;;;27.00;27.90;;;;;;5048323;28;20487;-58
2023/09/21 12:38:10;;;;;;;2.90;2.00;;;27.00;28.00;;;;;;5047429;28;20029;-57
2023/09/21 12:40:37;;;;;;;2.72;1.67;;;27.00;28.00;;;;;;5047309;28;20028;-57
2023/09/21 12:43:02;;;;;;;2.00;1.60;;;27.10;28.00;;;;;;5049541;28;20028;-56
2023/09/21 12:45:28;;;;;;;1.98;1.40;;;27.10;28.10;;;;;;5045941;28;20029;-55
2023/09/21 12:47:53;;;;;;;2.40;1.65;;;27.10;28.40;;;;;;5045442;28;20325;-57
2023/09/21 12:50:19;;;;;;;2.45;1.65;;;27.10;27.80;;;;;;5045046;28;20031;-55